sensor_id;sensor_type;location;lat;lon;timestamp;pressure;altitude;pressure_sealevel;temperature;humidity
64644;BME280;51056;50.330;7.914;2023-05-24T00:02:50;101256.97;;;9.14;80.40
64644;BME280;51056;50.330;7.914;2023-05-24T00:05:53;101248.63;;;9.02;80.86
64644;BME280;51056;50.330;7.914;2023-05-24T00:08:56;101251.47;;;9.21;80.24
64644;BME280;51056;50.330;7.914;2023-05-24T00:12:00;101263.13;;;9.11;81.00
64644;BME280;51056;50.330;7.914;2023-05-24T00:15:04;101256.03;;;9.15;80.52
64644;BME280;51056;50.330;7.914;2023-05-24T00:18:07;101265.19;;;9.01;80.92
64644;BME280;51056;50.330;7.914;2023-05-24T00:21:10;101261.66;;;9.29;79.97
64644;BME280;51056;50.330;7.914;2023-05-24T00:24:14;101258.44;;;9.21;80.23
64644;BME280;51056;50.330;7.914;2023-05-24T00:27:19;101262.91;;;8.92;80.86
64644;BME280;51056;50.330;7.914;2023-05-24T00:30:22;101267.50;;;9.11;80.14
64644;BME280;51056;50.330;7.914;2023-05-24T00:33:25;101272.81;;;9.07;80.25
64644;BME280;51056;50.330;7.914;2023-05-24T00:36:29;101276.22;;;8.84;81.54
64644;BME280;51056;50.330;7.914;2023-05-24T00:39:32;101270.81;;;8.89;81.47
64644;BME280;51056;50.330;7.914;2023-05-24T00:42:36;101272.97;;;9.03;80.09
64644;BME280;51056;50.330;7.914;2023-05-24T00:45:39;101267.44;;;8.87;80.15
64644;BME280;51056;50.330;7.914;2023-05-24T00:48:43;101278.38;;;8.72;81.06
64644;BME280;51056;50.330;7.914;2023-05-24T00:51:50;101278.19;;;8.50;81.94
64644;BME280;51056;50.330;7.914;2023-05-24T00:54:54;101276.97;;;8.61;81.62
64644;BME280;51056;50.330;7.914;2023-05-24T00:57:58;101273.72;;;8.53;81.86
64644;BME280;51056;50.330;7.914;2023-05-24T01:01:02;101274.69;;;8.51;82.01
64644;BME280;51056;50.330;7.914;2023-05-24T01:04:05;101270.38;;;8.50;82.48
64644;BME280;51056;50.330;7.914;2023-05-24T01:10:57;101268.53;;;8.53;82.45
64644;BME280;51056;50.330;7.914;2023-05-24T01:14:14;101263.41;;;8.50;81.91
64644;BME280;51056;50.330;7.914;2023-05-24T01:17:30;101265.47;;;8.39;82.46
64644;BME280;51056;50.330;7.914;2023-05-24T01:20:35;101269.81;;;8.40;82.55
64644;BME280;51056;50.330;7.914;2023-05-24T01:27:25;101262.88;;;8.39;82.53
64644;BME280;51056;50.330;7.914;2023-05-24T01:30:29;101268.31;;;8.31;83.08
64644;BME280;51056;50.330;7.914;2023-05-24T01:33:32;101260.78;;;8.50;82.59
64644;BME280;51056;50.330;7.914;2023-05-24T01:36:36;101267.47;;;8.59;81.51
64644;BME280;51056;50.330;7.914;2023-05-24T01:39:39;101260.06;;;8.45;82.72
64644;BME280;51056;50.330;7.914;2023-05-24T01:49:25;101258.91;;;8.26;83.47
64644;BME280;51056;50.330;7.914;2023-05-24T01:52:32;101258.44;;;8.13;83.87
64644;BME280;51056;50.330;7.914;2023-05-24T01:55:38;101252.84;;;8.27;82.76
64644;BME280;51056;50.330;7.914;2023-05-24T01:58:44;101263.00;;;8.34;81.72
64644;BME280;51056;50.330;7.914;2023-05-24T02:01:49;101263.38;;;8.22;82.18
64644;BME280;51056;50.330;7.914;2023-05-24T02:04:52;101271.63;;;8.08;83.03
64644;BME280;51056;50.330;7.914;2023-05-24T02:07:56;101273.50;;;8.31;81.64
64644;BME280;51056;50.330;7.914;2023-05-24T02:11:00;101269.84;;;8.10;81.60
64644;BME280;51056;50.330;7.914;2023-05-24T02:14:04;101266.03;;;7.91;82.49
64644;BME280;51056;50.330;7.914;2023-05-24T02:17:07;101273.25;;;7.83;83.04
64644;BME280;51056;50.330;7.914;2023-05-24T02:20:11;101271.47;;;7.85;82.89
64644;BME280;51056;50.330;7.914;2023-05-24T02:23:15;101273.41;;;7.77;83.20
64644;BME280;51056;50.330;7.914;2023-05-24T02:26:19;101275.00;;;7.82;82.99
64644;BME280;51056;50.330;7.914;2023-05-24T02:29:22;101271.47;;;7.83;82.69
64644;BME280;51056;50.330;7.914;2023-05-24T02:32:25;101269.13;;;7.76;83.08
64644;BME280;51056;50.330;7.914;2023-05-24T02:35:28;101272.63;;;8.04;80.81
64644;BME280;51056;50.330;7.914;2023-05-24T02:38:32;101261.00;;;8.14;79.51
64644;BME280;51056;50.330;7.914;2023-05-24T02:41:35;101263.47;;;8.19;78.56
64644;BME280;51056;50.330;7.914;2023-05-24T02:44:38;101256.31;;;8.26;78.28
64644;BME280;51056;50.330;7.914;2023-05-24T02:47:41;101255.28;;;8.31;77.78
64644;BME280;51056;50.330;7.914;2023-05-24T02:50:44;101251.16;;;7.96;79.46
64644;BME280;51056;50.330;7.914;2023-05-24T02:53:48;101248.53;;;7.96;79.73
64644;BME280;51056;50.330;7.914;2023-05-24T02:56:51;101252.38;;;8.12;79.16
64644;BME280;51056;50.330;7.914;2023-05-24T02:59:55;101247.09;;;8.15;77.56
64644;BME280;51056;50.330;7.914;2023-05-24T03:02:59;101255.81;;;8.14;77.20
64644;BME280;51056;50.330;7.914;2023-05-24T03:06:06;101254.91;;;8.15;77.08
64644;BME280;51056;50.330;7.914;2023-05-24T03:09:09;101251.50;;;7.84;78.62
64644;BME280;51056;50.330;7.914;2023-05-24T03:12:12;101258.88;;;7.69;80.16
64644;BME280;51056;50.330;7.914;2023-05-24T03:15:15;101256.69;;;7.85;78.44
64644;BME280;51056;50.330;7.914;2023-05-24T03:18:19;101246.72;;;7.68;78.98
64644;BME280;51056;50.330;7.914;2023-05-24T03:21:22;101253.53;;;7.43;80.80
64644;BME280;51056;50.330;7.914;2023-05-24T03:24:27;101253.25;;;7.21;81.56
64644;BME280;51056;50.330;7.914;2023-05-24T03:27:30;101258.63;;;7.48;80.86
64644;BME280;51056;50.330;7.914;2023-05-24T03:30:33;101253.28;;;7.52;79.73
64644;BME280;51056;50.330;7.914;2023-05-24T03:33:36;101254.84;;;7.27;80.69
64644;BME280;51056;50.330;7.914;2023-05-24T03:36:39;101253.31;;;7.19;81.46
64644;BME280;51056;50.330;7.914;2023-05-24T03:39:44;101255.38;;;7.07;82.47
64644;BME280;51056;50.330;7.914;2023-05-24T03:43:00;101253.69;;;7.04;82.27
64644;BME280;51056;50.330;7.914;2023-05-24T03:46:18;101247.84;;;7.29;79.53
64644;BME280;51056;50.330;7.914;2023-05-24T03:49:21;101252.72;;;7.41;78.76
64644;BME280;51056;50.330;7.914;2023-05-24T03:52:25;101247.09;;;7.56;79.13
64644;BME280;51056;50.330;7.914;2023-05-24T03:55:28;101247.69;;;7.66;78.37
64644;BME280;51056;50.330;7.914;2023-05-24T03:58:31;101267.75;;;7.30;79.67
64644;BME280;51056;50.330;7.914;2023-05-24T04:01:34;101271.06;;;7.36;79.91
64644;BME280;51056;50.330;7.914;2023-05-24T04:04:40;101273.28;;;7.17;80.95
64644;BME280;51056;50.330;7.914;2023-05-24T04:07:43;101274.19;;;7.16;80.96
64644;BME280;51056;50.330;7.914;2023-05-24T04:10:48;101285.97;;;7.30;79.70
64644;BME280;51056;50.330;7.914;2023-05-24T04:13:52;101291.72;;;7.42;78.63
64644;BME280;51056;50.330;7.914;2023-05-24T04:16:55;101301.72;;;7.25;79.46
64644;BME280;51056;50.330;7.914;2023-05-24T04:19:59;101297.13;;;7.02;81.39
64644;BME280;51056;50.330;7.914;2023-05-24T04:23:03;101297.59;;;7.16;81.48
64644;BME280;51056;50.330;7.914;2023-05-24T04:26:06;101298.13;;;7.31;79.40
64644;BME280;51056;50.330;7.914;2023-05-24T04:29:12;101290.69;;;7.15;80.21
64644;BME280;51056;50.330;7.914;2023-05-24T04:32:15;101291.47;;;7.19;80.98
64644;BME280;51056;50.330;7.914;2023-05-24T04:35:22;101291.69;;;7.10;81.48
64644;BME280;51056;50.330;7.914;2023-05-24T04:38:26;101294.16;;;7.16;80.67
64644;BME280;51056;50.330;7.914;2023-05-24T04:41:31;101303.19;;;7.34;78.87
64644;BME280;51056;50.330;7.914;2023-05-24T04:44:34;101298.72;;;7.40;78.68
64644;BME280;51056;50.330;7.914;2023-05-24T04:47:37;101293.47;;;7.42;78.17
64644;BME280;51056;50.330;7.914;2023-05-24T04:50:40;101289.47;;;7.29;78.57
64644;BME280;51056;50.330;7.914;2023-05-24T04:53:43;101286.28;;;7.17;79.06
64644;BME280;51056;50.330;7.914;2023-05-24T04:56:46;101288.78;;;7.22;78.96
64644;BME280;51056;50.330;7.914;2023-05-24T04:59:49;101291.09;;;7.33;78.64
64644;BME280;51056;50.330;7.914;2023-05-24T05:02:52;101299.41;;;7.47;78.47
64644;BME280;51056;50.330;7.914;2023-05-24T05:05:55;101293.25;;;7.50;78.03
64644;BME280;51056;50.330;7.914;2023-05-24T05:08:58;101300.41;;;7.41;78.60
64644;BME280;51056;50.330;7.914;2023-05-24T05:12:01;101304.84;;;7.38;78.99
64644;BME280;51056;50.330;7.914;2023-05-24T05:15:05;101312.53;;;7.42;79.05
64644;BME280;51056;50.330;7.914;2023-05-24T05:18:08;101309.44;;;7.61;78.78
64644;BME280;51056;50.330;7.914;2023-05-24T05:21:11;101320.22;;;7.47;79.29
64644;BME280;51056;50.330;7.914;2023-05-24T05:24:14;101316.56;;;7.54;79.10
64644;BME280;51056;50.330;7.914;2023-05-24T05:27:18;101314.84;;;7.53;80.12
64644;BME280;51056;50.330;7.914;2023-05-24T05:30:21;101313.22;;;7.49;80.70
64644;BME280;51056;50.330;7.914;2023-05-24T05:33:24;101317.97;;;7.66;80.74
64644;BME280;51056;50.330;7.914;2023-05-24T05:36:27;101323.56;;;7.83;80.63
64644;BME280;51056;50.330;7.914;2023-05-24T05:39:30;101322.19;;;8.01;80.10
64644;BME280;51056;50.330;7.914;2023-05-24T05:42:33;101326.13;;;8.14;79.74
64644;BME280;51056;50.330;7.914;2023-05-24T05:45:36;101324.13;;;8.24;79.80
64644;BME280;51056;50.330;7.914;2023-05-24T05:48:39;101331.00;;;8.27;80.00
64644;BME280;51056;50.330;7.914;2023-05-24T05:51:43;101331.59;;;8.35;80.08
64644;BME280;51056;50.330;7.914;2023-05-24T05:54:47;101333.69;;;8.53;78.96
64644;BME280;51056;50.330;7.914;2023-05-24T05:57:49;101337.72;;;8.64;78.64
64644;BME280;51056;50.330;7.914;2023-05-24T06:00:53;101328.59;;;8.77;78.38
64644;BME280;51056;50.330;7.914;2023-05-24T06:03:56;101328.16;;;8.91;78.02
64644;BME280;51056;50.330;7.914;2023-05-24T06:06:59;101331.16;;;9.05;77.32
64644;BME280;51056;50.330;7.914;2023-05-24T06:10:02;101327.41;;;9.14;76.40
64644;BME280;51056;50.330;7.914;2023-05-24T06:13:05;101327.84;;;9.26;75.90
64644;BME280;51056;50.330;7.914;2023-05-24T06:16:09;101323.91;;;9.40;74.50
64644;BME280;51056;50.330;7.914;2023-05-24T06:19:12;101328.53;;;9.57;76.23
64644;BME280;51056;50.330;7.914;2023-05-24T06:22:15;101322.09;;;9.67;73.09
64644;BME280;51056;50.330;7.914;2023-05-24T06:25:18;101322.13;;;9.65;69.36
64644;BME280;51056;50.330;7.914;2023-05-24T06:28:22;101313.69;;;9.82;69.88
64644;BME280;51056;50.330;7.914;2023-05-24T06:31:25;101315.06;;;9.92;70.17
64644;BME280;51056;50.330;7.914;2023-05-24T06:34:28;101317.41;;;9.76;69.73
64644;BME280;51056;50.330;7.914;2023-05-24T06:37:31;101309.78;;;9.94;67.94
64644;BME280;51056;50.330;7.914;2023-05-24T06:40:35;101304.16;;;9.81;66.72
64644;BME280;51056;50.330;7.914;2023-05-24T06:43:38;101298.41;;;10.18;68.41
64644;BME280;51056;50.330;7.914;2023-05-24T06:46:42;101305.06;;;10.04;67.18
64644;BME280;51056;50.330;7.914;2023-05-24T06:49:45;101296.66;;;10.19;66.59
64644;BME280;51056;50.330;7.914;2023-05-24T06:52:49;101300.97;;;10.43;67.54
64644;BME280;51056;50.330;7.914;2023-05-24T06:55:52;101295.91;;;10.61;65.98
64644;BME280;51056;50.330;7.914;2023-05-24T06:58:55;101296.88;;;10.58;64.65
64644;BME280;51056;50.330;7.914;2023-05-24T07:01:58;101296.59;;;10.66;64.68
64644;BME280;51056;50.330;7.914;2023-05-24T07:05:02;101293.97;;;10.66;63.23
64644;BME280;51056;50.330;7.914;2023-05-24T07:08:05;101282.72;;;10.84;62.80
64644;BME280;51056;50.330;7.914;2023-05-24T07:11:08;101292.59;;;10.78;62.22
64644;BME280;51056;50.330;7.914;2023-05-24T07:14:11;101302.66;;;10.88;62.38
64644;BME280;51056;50.330;7.914;2023-05-24T07:17:14;101327.75;;;10.92;61.09
64644;BME280;51056;50.330;7.914;2023-05-24T07:20:17;101330.69;;;10.85;61.67
64644;BME280;51056;50.330;7.914;2023-05-24T07:23:20;101341.75;;;10.91;62.26
64644;BME280;51056;50.330;7.914;2023-05-24T07:26:23;101341.00;;;11.10;61.85
64644;BME280;51056;50.330;7.914;2023-05-24T07:29:26;101325.88;;;11.16;60.88
64644;BME280;51056;50.330;7.914;2023-05-24T07:32:29;101324.91;;;11.19;61.33
64644;BME280;51056;50.330;7.914;2023-05-24T07:35:34;101337.97;;;10.99;59.47
64644;BME280;51056;50.330;7.914;2023-05-24T07:38:38;101333.38;;;10.61;59.27
64644;BME280;51056;50.330;7.914;2023-05-24T07:41:41;101333.69;;;10.54;61.42
64644;BME280;51056;50.330;7.914;2023-05-24T07:44:44;101329.22;;;10.78;62.14
64644;BME280;51056;50.330;7.914;2023-05-24T07:47:47;101324.47;;;10.87;61.17
64644;BME280;51056;50.330;7.914;2023-05-24T07:50:50;101334.97;;;11.08;60.06
64644;BME280;51056;50.330;7.914;2023-05-24T07:53:59;101333.16;;;11.30;59.22
64644;BME280;51056;50.330;7.914;2023-05-24T07:57:06;101336.84;;;11.47;59.61
64644;BME280;51056;50.330;7.914;2023-05-24T08:00:10;101336.03;;;11.45;56.95
64644;BME280;51056;50.330;7.914;2023-05-24T08:03:16;101331.44;;;11.29;56.38
64644;BME280;51056;50.330;7.914;2023-05-24T08:06:20;101327.41;;;11.43;57.40
64644;BME280;51056;50.330;7.914;2023-05-24T08:09:26;101333.09;;;11.52;56.26
64644;BME280;51056;50.330;7.914;2023-05-24T08:12:33;101342.53;;;11.56;55.41
64644;BME280;51056;50.330;7.914;2023-05-24T08:15:41;101341.66;;;11.35;56.79
64644;BME280;51056;50.330;7.914;2023-05-24T08:18:44;101355.81;;;11.11;56.92
64644;BME280;51056;50.330;7.914;2023-05-24T08:21:50;101350.41;;;11.36;55.86
64644;BME280;51056;50.330;7.914;2023-05-24T08:24:54;101354.63;;;11.18;55.39
64644;BME280;51056;50.330;7.914;2023-05-24T08:27:58;101357.13;;;10.99;55.71
64644;BME280;51056;50.330;7.914;2023-05-24T08:31:03;101354.78;;;11.13;55.29
64644;BME280;51056;50.330;7.914;2023-05-24T08:34:07;101348.94;;;11.49;55.25
64644;BME280;51056;50.330;7.914;2023-05-24T08:37:12;101357.13;;;11.62;54.03
64644;BME280;51056;50.330;7.914;2023-05-24T08:40:20;101344.94;;;11.61;54.40
64644;BME280;51056;50.330;7.914;2023-05-24T08:43:26;101348.38;;;11.43;54.45
64644;BME280;51056;50.330;7.914;2023-05-24T08:46:35;101347.53;;;11.81;55.72
64644;BME280;51056;50.330;7.914;2023-05-24T08:49:40;101344.72;;;12.06;55.12
64644;BME280;51056;50.330;7.914;2023-05-24T08:52:44;101346.84;;;11.57;53.99
64644;BME280;51056;50.330;7.914;2023-05-24T08:55:48;101343.13;;;11.43;56.03
64644;BME280;51056;50.330;7.914;2023-05-24T08:59:01;101346.78;;;11.38;56.25
64644;BME280;51056;50.330;7.914;2023-05-24T09:02:04;101342.66;;;11.33;55.82
64644;BME280;51056;50.330;7.914;2023-05-24T09:05:11;101345.84;;;11.19;55.99
64644;BME280;51056;50.330;7.914;2023-05-24T09:08:15;101357.72;;;11.28;56.78
64644;BME280;51056;50.330;7.914;2023-05-24T09:11:20;101343.63;;;11.51;57.44
64644;BME280;51056;50.330;7.914;2023-05-24T09:14:24;101340.50;;;11.63;56.69
64644;BME280;51056;50.330;7.914;2023-05-24T09:17:30;101342.81;;;11.90;56.13
64644;BME280;51056;50.330;7.914;2023-05-24T09:20:33;101340.44;;;11.83;54.83
64644;BME280;51056;50.330;7.914;2023-05-24T09:23:37;101330.91;;;11.82;55.76
64644;BME280;51056;50.330;7.914;2023-05-24T09:26:40;101325.84;;;11.98;54.73
64644;BME280;51056;50.330;7.914;2023-05-24T09:29:43;101318.50;;;12.25;54.52
64644;BME280;51056;50.330;7.914;2023-05-24T09:32:55;101310.84;;;12.57;54.14
64644;BME280;51056;50.330;7.914;2023-05-24T09:35:59;101299.50;;;12.93;54.32
64644;BME280;51056;50.330;7.914;2023-05-24T09:39:06;101295.31;;;12.89;53.45
64644;BME280;51056;50.330;7.914;2023-05-24T09:42:20;101289.06;;;12.91;52.65
64644;BME280;51056;50.330;7.914;2023-05-24T09:45:26;101300.06;;;12.63;53.04
64644;BME280;51056;50.330;7.914;2023-05-24T09:48:29;101296.75;;;12.60;52.31
64644;BME280;51056;50.330;7.914;2023-05-24T09:51:35;101296.41;;;12.85;51.59
64644;BME280;51056;50.330;7.914;2023-05-24T09:54:39;101299.50;;;12.56;51.83
64644;BME280;51056;50.330;7.914;2023-05-24T09:57:43;101284.81;;;12.71;51.59
64644;BME280;51056;50.330;7.914;2023-05-24T10:00:47;101279.44;;;13.09;51.33
64644;BME280;51056;50.330;7.914;2023-05-24T10:03:54;101286.47;;;13.26;50.16
64644;BME280;51056;50.330;7.914;2023-05-24T10:06:58;101285.75;;;13.22;49.90
64644;BME280;51056;50.330;7.914;2023-05-24T10:10:03;101284.44;;;12.96;52.09
64644;BME280;51056;50.330;7.914;2023-05-24T10:13:06;101289.47;;;13.01;50.79
64644;BME280;51056;50.330;7.914;2023-05-24T10:16:09;101294.63;;;12.85;51.07
64644;BME280;51056;50.330;7.914;2023-05-24T10:19:12;101289.22;;;12.71;52.17
64644;BME280;51056;50.330;7.914;2023-05-24T10:22:15;101286.97;;;12.98;52.74
64644;BME280;51056;50.330;7.914;2023-05-24T10:25:22;101275.66;;;13.32;51.92
64644;BME280;51056;50.330;7.914;2023-05-24T10:28:29;101265.69;;;13.39;51.84
64644;BME280;51056;50.330;7.914;2023-05-24T10:31:33;101274.03;;;13.47;51.08
64644;BME280;51056;50.330;7.914;2023-05-24T10:34:37;101266.31;;;13.26;51.88
64644;BME280;51056;50.330;7.914;2023-05-24T10:37:41;101267.78;;;13.32;51.43
64644;BME280;51056;50.330;7.914;2023-05-24T10:40:44;101254.03;;;13.60;51.47
64644;BME280;51056;50.330;7.914;2023-05-24T10:43:47;101241.53;;;13.97;50.87
64644;BME280;51056;50.330;7.914;2023-05-24T10:47:09;101244.59;;;14.05;49.27
64644;BME280;51056;50.330;7.914;2023-05-24T10:50:17;101246.63;;;14.00;50.59
64644;BME280;51056;50.330;7.914;2023-05-24T10:53:21;101248.03;;;14.37;49.14
64644;BME280;51056;50.330;7.914;2023-05-24T10:56:25;101239.31;;;14.53;48.71
64644;BME280;51056;50.330;7.914;2023-05-24T11:02:35;101242.13;;;14.02;47.73
64644;BME280;51056;50.330;7.914;2023-05-24T11:08:51;101225.22;;;13.75;49.78
64644;BME280;51056;50.330;7.914;2023-05-24T11:11:54;101232.03;;;13.94;48.82
64644;BME280;51056;50.330;7.914;2023-05-24T11:14:57;101233.63;;;14.29;48.42
64644;BME280;51056;50.330;7.914;2023-05-24T11:21:11;101240.50;;;14.31;49.83
64644;BME280;51056;50.330;7.914;2023-05-24T11:24:16;101228.78;;;14.37;48.88
64644;BME280;51056;50.330;7.914;2023-05-24T11:27:20;101239.13;;;14.40;48.65
64644;BME280;51056;50.330;7.914;2023-05-24T11:30:28;101233.53;;;14.46;48.49
64644;BME280;51056;50.330;7.914;2023-05-24T11:33:32;101228.81;;;14.21;46.23
64644;BME280;51056;50.330;7.914;2023-05-24T11:36:35;101231.75;;;14.31;47.00
64644;BME280;51056;50.330;7.914;2023-05-24T11:39:39;101230.97;;;14.45;46.66
64644;BME280;51056;50.330;7.914;2023-05-24T11:42:45;101239.16;;;14.24;47.21
64644;BME280;51056;50.330;7.914;2023-05-24T11:45:50;101225.81;;;14.43;47.17
64644;BME280;51056;50.330;7.914;2023-05-24T11:48:56;101225.53;;;14.63;47.47
64644;BME280;51056;50.330;7.914;2023-05-24T11:52:00;101236.50;;;14.40;47.27
64644;BME280;51056;50.330;7.914;2023-05-24T11:55:03;101233.63;;;14.29;47.76
64644;BME280;51056;50.330;7.914;2023-05-24T11:58:09;101230.81;;;14.32;48.60
64644;BME280;51056;50.330;7.914;2023-05-24T12:01:26;101234.38;;;14.62;48.03
64644;BME280;51056;50.330;7.914;2023-05-24T12:04:29;101230.41;;;14.39;47.81
64644;BME280;51056;50.330;7.914;2023-05-24T12:07:32;101226.84;;;14.25;46.73
64644;BME280;51056;50.330;7.914;2023-05-24T12:10:36;101239.13;;;14.40;47.88
64644;BME280;51056;50.330;7.914;2023-05-24T12:13:39;101240.25;;;14.36;47.02
64644;BME280;51056;50.330;7.914;2023-05-24T12:16:43;101245.44;;;14.53;46.60
64644;BME280;51056;50.330;7.914;2023-05-24T12:19:47;101243.22;;;14.30;47.31
64644;BME280;51056;50.330;7.914;2023-05-24T12:22:52;101234.53;;;14.59;46.55
64644;BME280;51056;50.330;7.914;2023-05-24T12:25:57;101250.41;;;14.58;46.96
64644;BME280;51056;50.330;7.914;2023-05-24T12:29:25;101235.59;;;14.09;47.61
64644;BME280;51056;50.330;7.914;2023-05-24T12:32:28;101242.03;;;13.88;47.78
64644;BME280;51056;50.330;7.914;2023-05-24T12:35:41;101236.25;;;14.29;47.60
64644;BME280;51056;50.330;7.914;2023-05-24T12:38:45;101240.34;;;13.87;48.02
64644;BME280;51056;50.330;7.914;2023-05-24T12:41:51;101236.03;;;13.86;47.94
64644;BME280;51056;50.330;7.914;2023-05-24T12:44:54;101233.72;;;13.80;49.73
64644;BME280;51056;50.330;7.914;2023-05-24T12:47:58;101242.22;;;13.85;48.69
64644;BME280;51056;50.330;7.914;2023-05-24T12:51:02;101233.19;;;13.57;47.71
64644;BME280;51056;50.330;7.914;2023-05-24T12:54:06;101235.06;;;13.71;48.28
64644;BME280;51056;50.330;7.914;2023-05-24T12:57:10;101234.22;;;13.86;47.66
64644;BME280;51056;50.330;7.914;2023-05-24T13:00:14;101230.25;;;14.11;46.97
64644;BME280;51056;50.330;7.914;2023-05-24T13:03:17;101225.06;;;14.09;46.75
64644;BME280;51056;50.330;7.914;2023-05-24T13:06:20;101218.34;;;14.35;47.37
64644;BME280;51056;50.330;7.914;2023-05-24T13:09:24;101218.88;;;14.72;47.94
64644;BME280;51056;50.330;7.914;2023-05-24T13:12:28;101220.28;;;15.08;45.14
64644;BME280;51056;50.330;7.914;2023-05-24T13:15:31;101221.88;;;15.10;45.12
64644;BME280;51056;50.330;7.914;2023-05-24T13:18:34;101217.94;;;15.32;44.28
64644;BME280;51056;50.330;7.914;2023-05-24T13:21:36;101215.31;;;15.32;44.25
64644;BME280;51056;50.330;7.914;2023-05-24T13:24:40;101225.94;;;15.16;44.54
64644;BME280;51056;50.330;7.914;2023-05-24T13:27:45;101222.59;;;14.98;44.97
64644;BME280;51056;50.330;7.914;2023-05-24T13:30:50;101224.03;;;15.04;44.20
64644;BME280;51056;50.330;7.914;2023-05-24T13:33:54;101227.34;;;15.07;44.29
64644;BME280;51056;50.330;7.914;2023-05-24T13:36:59;101223.63;;;14.81;44.25
64644;BME280;51056;50.330;7.914;2023-05-24T13:40:03;101214.69;;;14.84;45.39
64644;BME280;51056;50.330;7.914;2023-05-24T13:43:11;101217.03;;;14.88;45.64
64644;BME280;51056;50.330;7.914;2023-05-24T13:46:36;101215.44;;;14.86;45.77
64644;BME280;51056;50.330;7.914;2023-05-24T13:49:40;101203.34;;;14.98;45.25
64644;BME280;51056;50.330;7.914;2023-05-24T13:52:43;101195.22;;;14.86;45.87
64644;BME280;51056;50.330;7.914;2023-05-24T13:55:46;101203.22;;;14.99;45.34
64644;BME280;51056;50.330;7.914;2023-05-24T13:58:52;101197.41;;;15.37;44.31
64644;BME280;51056;50.330;7.914;2023-05-24T14:01:56;101192.16;;;15.51;43.37
64644;BME280;51056;50.330;7.914;2023-05-24T14:04:59;101199.41;;;15.76;42.49
64644;BME280;51056;50.330;7.914;2023-05-24T14:08:02;101192.31;;;15.63;42.33
64644;BME280;51056;50.330;7.914;2023-05-24T14:11:08;101198.19;;;16.09;42.13
64644;BME280;51056;50.330;7.914;2023-05-24T14:14:18;101201.66;;;15.83;40.62
64644;BME280;51056;50.330;7.914;2023-05-24T14:17:22;101194.31;;;15.59;42.19
64644;BME280;51056;50.330;7.914;2023-05-24T14:20:33;101194.88;;;15.50;42.50
64644;BME280;51056;50.330;7.914;2023-05-24T14:23:39;101196.97;;;15.45;42.23
64644;BME280;51056;50.330;7.914;2023-05-24T14:26:41;101199.22;;;15.51;43.53
64644;BME280;51056;50.330;7.914;2023-05-24T14:29:45;101205.59;;;15.18;44.13
64644;BME280;51056;50.330;7.914;2023-05-24T14:32:49;101195.09;;;14.74;44.20
64644;BME280;51056;50.330;7.914;2023-05-24T14:35:53;101202.59;;;14.65;44.78
64644;BME280;51056;50.330;7.914;2023-05-24T14:38:56;101209.72;;;14.63;46.04
64644;BME280;51056;50.330;7.914;2023-05-24T14:41:59;101211.13;;;14.39;45.21
64644;BME280;51056;50.330;7.914;2023-05-24T14:45:03;101208.41;;;14.56;45.27
64644;BME280;51056;50.330;7.914;2023-05-24T14:48:06;101201.88;;;14.78;45.73
64644;BME280;51056;50.330;7.914;2023-05-24T14:51:13;101204.59;;;14.76;45.81
64644;BME280;51056;50.330;7.914;2023-05-24T14:54:16;101194.84;;;14.93;46.00
64644;BME280;51056;50.330;7.914;2023-05-24T14:57:19;101199.69;;;15.29;44.83
64644;BME280;51056;50.330;7.914;2023-05-24T15:00:24;101197.88;;;16.41;41.72
64644;BME280;51056;50.330;7.914;2023-05-24T15:03:28;101186.75;;;19.08;37.95
64644;BME280;51056;50.330;7.914;2023-05-24T15:06:30;101180.31;;;21.37;34.16
64644;BME280;51056;50.330;7.914;2023-05-24T15:09:37;101189.38;;;20.83;32.84
64644;BME280;51056;50.330;7.914;2023-05-24T15:12:40;101181.69;;;21.31;32.86
64644;BME280;51056;50.330;7.914;2023-05-24T15:15:44;101175.41;;;21.82;33.36
64644;BME280;51056;50.330;7.914;2023-05-24T15:18:47;101172.09;;;21.50;31.42
64644;BME280;51056;50.330;7.914;2023-05-24T15:21:50;101173.31;;;22.73;30.98
64644;BME280;51056;50.330;7.914;2023-05-24T15:24:55;101160.34;;;24.08;29.84
64644;BME280;51056;50.330;7.914;2023-05-24T15:27:59;101162.22;;;24.96;26.10
64644;BME280;51056;50.330;7.914;2023-05-24T15:31:03;101169.75;;;19.55;32.30
64644;BME280;51056;50.330;7.914;2023-05-24T15:34:07;101170.38;;;18.56;35.79
64644;BME280;51056;50.330;7.914;2023-05-24T15:37:10;101170.41;;;18.08;36.33
64644;BME280;51056;50.330;7.914;2023-05-24T15:40:13;101182.56;;;17.74;38.33
64644;BME280;51056;50.330;7.914;2023-05-24T15:43:17;101182.25;;;17.16;39.83
64644;BME280;51056;50.330;7.914;2023-05-24T15:46:21;101187.16;;;16.57;40.84
64644;BME280;51056;50.330;7.914;2023-05-24T15:49:25;101185.09;;;16.35;41.23
64644;BME280;51056;50.330;7.914;2023-05-24T15:52:28;101188.63;;;15.94;43.94
64644;BME280;51056;50.330;7.914;2023-05-24T15:55:33;101190.09;;;15.98;43.20
64644;BME280;51056;50.330;7.914;2023-05-24T15:58:39;101188.63;;;15.94;42.82
64644;BME280;51056;50.330;7.914;2023-05-24T16:01:43;101191.56;;;15.75;43.11
64644;BME280;51056;50.330;7.914;2023-05-24T16:04:46;101184.06;;;15.40;43.12
64644;BME280;51056;50.330;7.914;2023-05-24T16:07:50;101183.69;;;15.18;44.10
64644;BME280;51056;50.330;7.914;2023-05-24T16:10:53;101183.31;;;15.24;45.01
64644;BME280;51056;50.330;7.914;2023-05-24T16:13:56;101194.03;;;15.06;44.66
64644;BME280;51056;50.330;7.914;2023-05-24T16:17:00;101186.31;;;15.03;44.77
64644;BME280;51056;50.330;7.914;2023-05-24T16:20:05;101182.34;;;14.96;46.23
64644;BME280;51056;50.330;7.914;2023-05-24T16:23:10;101187.63;;;15.10;45.56
64644;BME280;51056;50.330;7.914;2023-05-24T16:26:13;101188.47;;;15.40;45.55
64644;BME280;51056;50.330;7.914;2023-05-24T16:29:16;101184.63;;;15.31;45.35
64644;BME280;51056;50.330;7.914;2023-05-24T16:32:22;101179.75;;;15.39;45.68
64644;BME280;51056;50.330;7.914;2023-05-24T16:35:25;101183.28;;;15.52;45.98